createdAt,value
2018-01-15T00:00:56.193Z,15.33
2018-01-15T00:03:24.675Z,14.43
2018-01-15T00:05:53.074Z,14.67
2018-01-15T00:08:21.449Z,15.10
2018-01-15T00:10:49.829Z,15.60
2018-01-15T00:13:18.493Z,15.87
2018-01-15T00:15:48.098Z,15.43
2018-01-15T00:18:16.529Z,15.50
2018-01-15T00:20:45.092Z,15.57
2018-01-15T00:23:13.525Z,16.50
2018-01-15T00:25:41.904Z,15.63
2018-01-15T00:28:10.294Z,16.80
2018-01-15T00:30:39.712Z,17.20
2018-01-15T00:33:08.088Z,17.50
2018-01-15T00:35:36.476Z,16.47
2018-01-15T00:38:05.256Z,19.08
2018-01-15T00:40:33.900Z,17.60
2018-01-15T00:43:02.514Z,17.07
2018-01-15T00:45:30.882Z,16.90
2018-01-15T00:47:59.261Z,15.47
2018-01-15T00:50:28.494Z,16.60
2018-01-15T00:52:57.153Z,15.13
2018-01-15T00:55:26.565Z,16.93
2018-01-15T00:57:55.145Z,17.30
2018-01-15T01:00:23.525Z,16.67
2018-01-15T01:02:52.729Z,16.27
2018-01-15T01:05:20.795Z,17.30
2018-01-15T01:07:49.169Z,17.63
2018-01-15T01:10:17.553Z,17.33
2018-01-15T01:12:45.979Z,15.83
2018-01-15T01:15:15.125Z,17.93
2018-01-15T01:17:43.550Z,18.50
2018-01-15T01:20:12.701Z,18.20
2018-01-15T01:22:41.120Z,16.90
2018-01-15T01:25:09.764Z,19.08
2018-01-15T01:27:38.176Z,18.20
2018-01-15T01:30:06.742Z,19.37
2018-01-15T01:32:35.112Z,19.17
2018-01-15T01:35:03.450Z,19.08
2018-01-15T01:37:31.818Z,17.53
2018-01-15T01:40:01.454Z,18.36
2018-01-15T01:42:29.852Z,18.73
2018-01-15T01:44:58.627Z,16.85
2018-01-15T01:47:27.936Z,15.55
2018-01-15T01:49:56.594Z,18.23
2018-01-15T01:52:24.998Z,18.93
2018-01-15T01:54:53.755Z,18.53
2018-01-15T01:57:22.146Z,17.90
2018-01-15T01:59:51.565Z,16.80
2018-01-15T02:02:20.322Z,19.07
2018-01-15T02:04:48.977Z,17.80
2018-01-15T02:07:17.625Z,17.23
2018-01-15T02:09:45.997Z,17.77
2018-01-15T02:12:14.457Z,19.77
2018-01-15T02:14:42.829Z,20.13
2018-01-15T02:17:12.245Z,19.03
2018-01-15T02:19:40.835Z,20.27
2018-01-15T02:22:09.225Z,18.60
2018-01-15T02:24:38.518Z,18.00
2018-01-15T02:27:06.586Z,19.13
2018-01-15T02:29:34.968Z,18.97
2018-01-15T02:32:03.349Z,16.30
2018-01-15T02:34:31.736Z,20.30
2018-01-15T02:37:01.357Z,20.65
2018-01-15T02:39:29.402Z,18.50
2018-01-15T02:41:58.080Z,21.17
2018-01-15T02:44:26.454Z,19.93
2018-01-15T02:46:54.838Z,20.47
2018-01-15T02:49:23.337Z,22.97
2018-01-15T02:51:53.124Z,22.27
2018-01-15T02:54:22.738Z,23.37
2018-01-15T02:56:51.157Z,23.77
2018-01-15T02:59:19.813Z,24.20
2018-01-15T03:01:48.389Z,22.73
2018-01-15T03:04:17.081Z,23.03
2018-01-15T03:06:46.346Z,23.23
2018-01-15T03:09:15.841Z,23.58
2018-01-15T03:11:45.201Z,23.27
2018-01-15T03:14:13.845Z,21.42
2018-01-15T03:16:42.569Z,23.30
2018-01-15T03:19:11.061Z,23.63
2018-01-15T03:21:39.705Z,22.00
2018-01-15T03:24:08.357Z,24.27
2018-01-15T03:26:37.793Z,20.65
2018-01-15T03:29:06.381Z,22.70
2018-01-15T03:31:34.765Z,22.90
2018-01-15T03:34:04.021Z,22.98
2018-01-15T03:36:33.445Z,21.90
2018-01-15T03:39:01.888Z,20.97
2018-01-15T03:41:30.424Z,20.07
2018-01-15T03:43:59.074Z,20.70
2018-01-15T03:46:27.564Z,21.73
2018-01-15T03:48:56.034Z,19.30
2018-01-15T03:51:24.610Z,21.70
2018-01-15T03:53:55.948Z,21.52
2018-01-15T03:56:24.334Z,21.37
2018-01-15T03:58:53.661Z,22.40
2018-01-15T04:01:22.224Z,21.90
2018-01-15T04:03:50.604Z,23.13
2018-01-15T04:06:19.496Z,22.45
2018-01-15T04:08:47.873Z,22.13
2018-01-15T04:11:18.453Z,24.73
2018-01-15T04:13:47.820Z,24.75
2018-01-15T04:16:16.500Z,25.40
2018-01-15T04:18:44.898Z,23.80
2018-01-15T04:21:13.560Z,24.63
2018-01-15T04:23:44.541Z,26.40
2018-01-15T04:26:12.928Z,27.30
2018-01-15T04:28:42.390Z,24.80
2018-01-15T04:31:10.956Z,23.20
2018-01-15T04:33:40.173Z,27.53
2018-01-15T04:36:08.366Z,27.87
2018-01-15T04:38:36.744Z,24.60
2018-01-15T04:41:05.213Z,28.20
2018-01-15T04:43:34.479Z,28.50
2018-01-15T04:46:03.084Z,28.23
2018-01-15T04:48:31.505Z,26.63
2018-01-15T04:51:00.644Z,29.53
2018-01-15T04:53:29.273Z,26.83
2018-01-15T04:55:57.933Z,26.90
2018-01-15T04:58:26.577Z,26.15
2018-01-15T05:00:55.381Z,26.60
2018-01-15T05:03:24.392Z,27.07
2018-01-15T05:05:53.284Z,28.83
2018-01-15T05:08:21.748Z,27.87
2018-01-15T05:10:50.255Z,28.20
2018-01-15T05:13:19.814Z,24.67
2018-01-15T05:15:49.024Z,25.97
2018-01-15T05:18:18.184Z,29.10
2018-01-15T05:20:47.666Z,29.30
2018-01-15T05:23:16.321Z,26.60
2018-01-15T05:25:44.984Z,28.60
2018-01-15T05:28:13.363Z,27.67
2018-01-15T05:30:42.048Z,27.43
2018-01-15T05:33:10.508Z,27.30
2018-01-15T05:35:39.168Z,27.13
2018-01-15T05:38:07.540Z,26.13
2018-01-15T05:40:36.212Z,28.48
2018-01-15T05:43:04.618Z,28.37
2018-01-15T05:45:33.317Z,27.80
2018-01-15T05:48:01.706Z,28.83
2018-01-15T05:50:30.409Z,25.67
2018-01-15T05:52:59.117Z,29.97
2018-01-15T05:55:27.585Z,29.73
2018-01-15T05:57:56.237Z,32.58
2018-01-15T06:00:24.681Z,27.27
2018-01-15T06:02:53.081Z,28.10
2018-01-15T06:05:22.289Z,27.67
2018-01-15T06:07:50.817Z,29.30
2018-01-15T06:10:19.293Z,26.83
2018-01-15T06:12:47.676Z,25.30
2018-01-15T06:15:16.060Z,28.27
2018-01-15T06:17:44.717Z,25.88
2018-01-15T06:20:13.480Z,26.23
2018-01-15T06:22:42.029Z,25.70
2018-01-15T06:25:10.717Z,26.33
2018-01-15T06:27:40.397Z,26.00
2018-01-15T06:30:09.057Z,27.23
2018-01-15T06:32:37.732Z,24.53
2018-01-15T06:35:06.112Z,28.00
2018-01-15T06:37:34.492Z,27.07
2018-01-15T06:40:03.916Z,25.30
2018-01-15T06:42:33.511Z,24.73
2018-01-15T06:45:02.029Z,25.10
2018-01-15T06:47:30.689Z,26.70
2018-01-15T06:49:59.109Z,23.23
2018-01-15T06:52:28.584Z,22.83
2018-01-15T06:54:56.938Z,22.67
2018-01-15T06:57:25.365Z,22.10
2018-01-15T06:59:54.016Z,23.75
2018-01-15T07:02:22.410Z,22.37
2018-01-15T07:04:51.590Z,23.77
2018-01-15T07:07:20.248Z,23.20
2018-01-15T07:09:48.740Z,24.10
2018-01-15T07:12:17.121Z,20.70
2018-01-15T07:14:45.786Z,21.62
2018-01-15T07:17:15.255Z,21.40
2018-01-15T07:19:43.996Z,22.50
2018-01-15T07:22:12.371Z,22.73
2018-01-15T07:24:40.762Z,21.10
2018-01-15T07:27:09.422Z,20.17
2018-01-15T07:29:37.809Z,21.30
2018-01-15T07:32:06.830Z,21.55
2018-01-15T07:34:36.469Z,21.15
2018-01-15T07:37:05.613Z,21.50
2018-01-15T07:39:34.285Z,20.07
2018-01-15T07:42:03.169Z,19.33
2018-01-15T07:44:31.921Z,19.95
2018-01-15T07:47:01.081Z,23.27
2018-01-15T07:49:29.453Z,21.80
2018-01-15T07:51:57.854Z,19.40
2018-01-15T07:54:26.301Z,21.87
2018-01-15T07:56:54.681Z,21.47
2018-01-15T07:59:23.405Z,21.83
2018-01-15T08:01:53.364Z,20.92
2018-01-15T08:04:22.053Z,20.17
2018-01-15T08:06:50.763Z,20.73
2018-01-15T08:09:19.191Z,20.60
2018-01-15T08:11:47.998Z,19.92
2018-01-15T08:14:16.570Z,21.00
2018-01-15T08:16:44.984Z,20.63
2018-01-15T08:19:13.368Z,20.23
2018-01-15T08:21:41.956Z,20.50
2018-01-15T08:24:10.616Z,21.25
2018-01-15T08:26:39.840Z,21.85
2018-01-15T08:29:08.436Z,22.50
2018-01-15T08:31:37.732Z,20.20
2018-01-15T08:34:06.592Z,20.63
2018-01-15T08:36:34.970Z,23.13
2018-01-15T08:39:03.050Z,22.20
2018-01-15T08:41:32.066Z,24.87
2018-01-15T08:44:00.635Z,26.67
2018-01-15T08:46:29.307Z,28.02
2018-01-15T08:48:57.357Z,22.33
2018-01-15T08:51:26.790Z,21.85
2018-01-15T08:53:55.407Z,22.07
2018-01-15T08:56:23.801Z,21.17
2018-01-15T08:58:52.171Z,21.30
2018-01-15T09:01:21.373Z,22.87
2018-01-15T09:03:49.884Z,24.00
2018-01-15T09:06:18.477Z,20.90
2018-01-15T09:08:47.174Z,22.05
2018-01-15T09:11:15.627Z,22.90
2018-01-15T09:13:45.043Z,20.95
2018-01-15T09:16:13.765Z,19.73
2018-01-15T09:18:43.265Z,20.10
2018-01-15T09:21:11.628Z,21.00
2018-01-15T09:23:40.310Z,21.03
2018-01-15T09:26:08.810Z,20.20
2018-01-15T09:28:37.476Z,21.90
2018-01-15T09:31:06.709Z,20.83
2018-01-15T09:33:36.350Z,20.17
2018-01-15T09:36:08.199Z,19.23
2018-01-15T09:38:36.997Z,21.25
2018-01-15T09:41:05.888Z,19.15
2018-01-15T09:43:34.988Z,25.77
2018-01-15T09:46:03.372Z,46.40
2018-01-15T09:48:33.975Z,21.43
2018-01-15T09:51:02.441Z,20.75
2018-01-15T09:53:31.098Z,20.52
2018-01-15T09:55:59.750Z,17.73
2018-01-15T09:58:28.116Z,19.77
2018-01-15T10:00:56.519Z,17.90
2018-01-15T10:03:25.806Z,16.60
2018-01-15T10:05:54.174Z,16.97
2018-01-15T10:08:23.276Z,16.50
2018-01-15T10:10:51.970Z,17.42
2018-01-15T10:13:20.729Z,17.35
2018-01-15T10:15:49.409Z,16.83
2018-01-15T10:18:17.781Z,17.93
2018-01-15T10:20:46.417Z,17.00
2018-01-15T10:23:15.203Z,17.10
2018-01-15T10:25:44.809Z,18.00
2018-01-15T10:28:13.481Z,18.03
2018-01-15T10:30:42.141Z,17.33
2018-01-15T10:33:10.785Z,17.87
2018-01-15T10:35:39.439Z,18.12
2018-01-15T10:38:07.820Z,18.17
2018-01-15T10:40:36.200Z,15.00
2018-01-15T10:43:04.752Z,16.60
2018-01-15T10:45:34.068Z,15.87
2018-01-15T10:48:02.710Z,15.35
2018-01-15T10:50:31.525Z,14.43
2018-01-15T10:53:00.956Z,16.00
2018-01-15T10:55:29.708Z,13.17
2018-01-15T10:57:58.088Z,15.67
2018-01-15T11:00:32.172Z,15.20
2018-01-15T11:03:02.325Z,14.07
2018-01-15T11:05:30.897Z,13.03
2018-01-15T11:07:59.280Z,12.80
2018-01-15T11:10:27.910Z,13.53
2018-01-15T11:12:56.452Z,12.57
2018-01-15T11:15:25.126Z,14.07
2018-01-15T11:17:53.502Z,15.00
2018-01-15T11:20:21.878Z,14.00
2018-01-15T11:22:51.363Z,14.57
2018-01-15T11:25:20.686Z,14.10
2018-01-15T11:27:49.468Z,12.93
2018-01-15T11:30:18.116Z,13.53
2018-01-15T11:32:46.758Z,13.02
2018-01-15T11:35:15.127Z,13.60
2018-01-15T11:37:43.527Z,12.43
2018-01-15T11:40:12.178Z,12.48
2018-01-15T11:42:40.645Z,11.87
2018-01-15T11:45:09.089Z,12.20
2018-01-15T11:47:37.629Z,12.20
2018-01-15T11:50:07.037Z,12.87
2018-01-15T11:52:35.701Z,12.47
2018-01-15T11:55:03.745Z,11.77
2018-01-15T11:57:32.979Z,12.10
2018-01-15T12:00:01.373Z,12.20
2018-01-15T12:02:29.753Z,12.17
2018-01-15T12:04:58.375Z,12.40
2018-01-15T12:07:27.033Z,12.35
2018-01-15T12:09:55.410Z,12.93
2018-01-15T12:12:24.002Z,11.83
2018-01-15T12:14:52.656Z,13.13
2018-01-15T12:17:21.032Z,12.57
2018-01-15T12:19:49.402Z,13.70
2018-01-15T12:22:17.820Z,14.17
2018-01-15T12:24:46.472Z,13.30
2018-01-15T12:27:15.890Z,13.27
2018-01-15T12:29:45.085Z,13.97
2018-01-15T12:32:13.458Z,12.37
2018-01-15T12:34:42.526Z,13.25
2018-01-15T12:37:11.165Z,13.97
2018-01-15T12:39:40.966Z,13.20
2018-01-15T12:42:09.074Z,12.97
2018-01-15T12:44:37.742Z,14.98
2018-01-15T12:47:06.394Z,12.95
2018-01-15T12:49:35.173Z,12.48
2018-01-15T12:52:04.769Z,13.47
2018-01-15T12:54:34.074Z,13.60
2018-01-15T12:57:02.541Z,13.73
2018-01-15T12:59:31.042Z,12.20
2018-01-15T13:01:59.849Z,12.43
2018-01-15T13:04:28.505Z,14.03
2018-01-15T13:06:56.289Z,14.60
2018-01-15T13:09:24.671Z,12.07
2018-01-15T13:11:54.065Z,14.03
2018-01-15T13:14:22.721Z,13.32
2018-01-15T13:16:51.208Z,12.93
2018-01-15T13:19:19.591Z,14.80
2018-01-15T13:21:47.973Z,14.47
2018-01-15T13:24:16.740Z,15.20
2018-01-15T13:26:45.277Z,13.90
2018-01-15T13:29:14.135Z,14.00
2018-01-15T13:31:42.456Z,15.87
2018-01-15T13:34:11.612Z,14.30
2018-01-15T13:36:40.270Z,14.47
2018-01-15T13:39:09.685Z,13.82
2018-01-15T13:41:38.084Z,14.83
2018-01-15T13:44:06.472Z,13.50
2018-01-15T13:46:34.932Z,15.13
2018-01-15T13:49:03.300Z,14.90
2018-01-15T13:51:32.206Z,13.40
2018-01-15T13:54:00.584Z,13.82
2018-01-15T13:56:28.966Z,14.43
2018-01-15T13:58:57.349Z,14.20
2018-01-15T14:01:25.745Z,14.30
2018-01-15T14:03:54.430Z,15.37
2018-01-15T14:06:22.998Z,14.87
2018-01-15T14:08:51.641Z,14.98
2018-01-15T14:11:21.061Z,13.93
2018-01-15T14:13:49.453Z,14.60
2018-01-15T14:16:17.825Z,14.53
2018-01-15T14:18:46.277Z,15.27
2018-01-15T14:21:15.612Z,14.23
2018-01-15T14:23:44.293Z,15.20
2018-01-15T14:26:12.664Z,15.00
2018-01-15T14:28:41.320Z,14.00
2018-01-15T14:31:10.721Z,14.20
2018-01-15T14:33:39.103Z,14.40
2018-01-15T14:36:07.808Z,14.70
2018-01-15T14:38:36.452Z,13.27
2018-01-15T14:41:05.892Z,13.90
2018-01-15T14:43:34.555Z,14.23
2018-01-15T14:46:03.972Z,14.98
2018-01-15T14:48:32.344Z,14.57
2018-01-15T14:51:01.794Z,15.10
2018-01-15T14:53:30.444Z,15.83
2018-01-15T14:55:59.090Z,13.00
2018-01-15T14:58:28.642Z,14.90
2018-01-15T15:00:57.008Z,15.10
2018-01-15T15:03:25.452Z,15.45
2018-01-15T15:05:53.867Z,15.47
2018-01-15T15:08:22.507Z,13.90
2018-01-15T15:10:51.150Z,14.20
2018-01-15T15:13:20.743Z,15.27
2018-01-15T15:15:50.652Z,14.17
2018-01-15T15:18:18.805Z,14.77
2018-01-15T15:20:47.202Z,15.57
2018-01-15T15:23:15.793Z,16.10
2018-01-15T15:25:44.161Z,15.60
2018-01-15T15:28:12.825Z,16.42
2018-01-15T15:30:41.193Z,15.00
2018-01-15T15:33:09.901Z,15.77
2018-01-15T15:35:38.573Z,15.70
2018-01-15T15:38:06.953Z,14.00
2018-01-15T15:40:35.718Z,16.23
2018-01-15T15:43:04.403Z,14.50
2018-01-15T15:45:32.828Z,14.00
2018-01-15T15:48:01.656Z,14.70
2018-01-15T15:50:30.066Z,14.70
2018-01-15T15:52:58.436Z,16.20
2018-01-15T15:55:27.081Z,16.15
2018-01-15T15:57:55.743Z,14.15
2018-01-15T16:00:23.775Z,16.80
2018-01-15T16:02:52.148Z,15.23
2018-01-15T16:05:20.602Z,14.67
2018-01-15T16:07:49.294Z,14.60
2018-01-15T16:10:18.126Z,14.00
2018-01-15T16:12:47.540Z,14.57
2018-01-15T16:15:16.231Z,14.18
2018-01-15T16:17:44.899Z,13.93
2018-01-15T16:20:13.806Z,13.98
2018-01-15T16:22:53.601Z,14.70
2018-01-15T16:25:22.293Z,13.70
2018-01-15T16:27:50.348Z,13.60
2018-01-15T16:30:19.501Z,12.97
2018-01-15T16:32:48.156Z,13.55
2018-01-15T16:35:16.528Z,13.00
2018-01-15T16:37:44.972Z,12.87
2018-01-15T16:40:13.665Z,13.47
2018-01-15T16:42:43.058Z,12.52
2018-01-15T16:45:11.704Z,12.30
2018-01-15T16:47:40.146Z,13.20
2018-01-15T16:50:14.965Z,13.40
2018-01-15T16:52:44.133Z,13.70
2018-01-15T16:55:12.505Z,12.90
2018-01-15T16:57:40.896Z,11.90
2018-01-15T17:00:09.569Z,11.70
2018-01-15T17:02:38.121Z,13.60
2018-01-15T17:05:06.699Z,11.73
2018-01-15T17:07:35.439Z,12.83
2018-01-15T17:10:03.755Z,12.10
2018-01-15T17:12:32.126Z,11.83
2018-01-15T17:15:00.539Z,12.07
2018-01-15T17:17:28.918Z,12.07
2018-01-15T17:19:57.571Z,12.43
2018-01-15T17:22:26.162Z,12.93
2018-01-15T17:24:54.841Z,13.63
2018-01-15T17:27:23.486Z,12.47
2018-01-15T17:29:52.053Z,13.50
2018-01-15T17:32:20.425Z,11.83
2018-01-15T17:34:48.929Z,13.57
2018-01-15T17:37:17.313Z,12.13
2018-01-15T17:39:45.945Z,12.70
2018-01-15T17:42:14.309Z,13.17
2018-01-15T17:44:42.693Z,11.87
2018-01-15T17:47:11.069Z,12.50
2018-01-15T17:49:40.065Z,12.27
2018-01-15T17:52:08.692Z,13.70
2018-01-15T17:54:37.340Z,11.85
2018-01-15T17:57:10.733Z,11.87
2018-01-15T17:59:40.847Z,13.77
2018-01-15T18:02:10.505Z,13.00
2018-01-15T18:04:39.227Z,13.05
2018-01-15T18:07:07.613Z,12.17
2018-01-15T18:09:36.085Z,11.23
2018-01-15T18:12:04.713Z,12.57
2018-01-15T18:14:33.101Z,12.23
2018-01-15T18:17:01.539Z,11.83
2018-01-15T18:19:29.925Z,12.73
2018-01-15T18:21:58.604Z,11.10
2018-01-15T18:24:26.972Z,11.20
2018-01-15T18:26:57.012Z,12.07
2018-01-15T18:29:25.416Z,11.37
2018-01-15T18:31:54.064Z,10.32
2018-01-15T18:34:22.716Z,10.40
2018-01-15T18:36:51.099Z,10.53
2018-01-15T18:39:19.814Z,11.80
2018-01-15T18:41:49.211Z,10.60
2018-01-15T18:44:17.770Z,9.90
2018-01-15T18:46:46.140Z,10.60
2018-01-15T18:49:14.506Z,10.90
2018-01-15T18:51:43.654Z,9.87
2018-01-15T18:54:11.693Z,10.07
2018-01-15T18:56:41.109Z,8.40
2018-01-15T18:59:09.577Z,10.03
2018-01-15T19:01:38.517Z,9.98
2018-01-15T19:04:07.213Z,10.33
2018-01-15T19:06:35.793Z,10.20
2018-01-15T19:09:04.272Z,9.73
2018-01-15T19:11:33.125Z,10.68
2018-01-15T19:14:01.785Z,9.98
2018-01-15T19:16:30.196Z,10.20
2018-01-15T19:18:58.603Z,8.97
2018-01-15T19:21:26.997Z,11.10
2018-01-15T19:23:56.140Z,11.00
2018-01-15T19:26:24.324Z,11.23
2018-01-15T19:28:52.516Z,10.00
2018-01-15T19:31:20.775Z,10.43
2018-01-15T19:33:49.127Z,10.30
2018-01-15T19:36:19.272Z,11.30
2018-01-15T19:38:49.526Z,14.27
2018-01-15T19:41:18.910Z,11.57
2018-01-15T19:44:02.412Z,14.57
2018-01-15T19:46:36.139Z,16.67
2018-01-15T19:49:09.878Z,16.20
2018-01-15T19:51:44.498Z,14.60
2018-01-15T19:54:19.294Z,15.33
2018-01-15T19:56:53.515Z,12.90
2018-01-15T19:59:27.729Z,11.98
2018-01-15T20:02:01.574Z,10.97
2018-01-15T20:04:36.360Z,12.20
2018-01-15T20:07:10.551Z,12.70
2018-01-15T20:09:44.610Z,11.57
2018-01-15T20:12:13.040Z,12.10
2018-01-15T20:14:41.452Z,11.90
2018-01-15T20:17:10.106Z,11.10
2018-01-15T20:19:39.508Z,13.67
2018-01-15T20:22:07.841Z,13.60
2018-01-15T20:24:37.190Z,13.00
2018-01-15T20:27:05.577Z,13.10
2018-01-15T20:29:34.141Z,14.40
2018-01-15T20:32:02.823Z,15.17
2018-01-15T20:34:31.469Z,14.55
2018-01-15T20:37:00.110Z,15.40
2018-01-15T20:39:28.773Z,15.73
2018-01-15T20:41:57.361Z,16.10
2018-01-15T20:44:26.002Z,16.07
2018-01-15T20:46:54.513Z,15.80
2018-01-15T20:49:23.033Z,16.63
2018-01-15T20:51:51.616Z,16.80
2018-01-15T20:54:20.273Z,17.75
2018-01-15T20:56:49.004Z,16.80
2018-01-15T20:59:17.670Z,16.00
2018-01-15T21:01:47.183Z,16.50
2018-01-15T21:04:15.840Z,15.70
2018-01-15T21:06:44.597Z,16.87
2018-01-15T21:09:13.294Z,17.03
2018-01-15T21:11:41.692Z,15.77
2018-01-15T21:14:10.080Z,17.97
2018-01-15T21:16:38.461Z,16.73
2018-01-15T21:19:06.840Z,17.90
2018-01-15T21:21:35.219Z,17.50
2018-01-15T21:24:03.674Z,18.63
2018-01-15T21:26:32.255Z,18.13
2018-01-15T21:29:00.764Z,17.33
2018-01-15T21:31:29.419Z,18.83
2018-01-15T21:33:57.827Z,17.63
2018-01-15T21:36:26.485Z,17.50
2018-01-15T21:38:55.351Z,17.80
2018-01-15T21:41:23.753Z,16.40
2018-01-15T21:43:52.821Z,18.77
2018-01-15T21:46:21.241Z,16.20
2018-01-15T21:48:49.617Z,17.13
2018-01-15T21:51:17.997Z,17.13
2018-01-15T21:53:46.384Z,16.53
2018-01-15T21:56:14.762Z,16.30
2018-01-15T21:58:43.966Z,16.97
2018-01-15T22:01:13.284Z,20.43
2018-01-15T22:03:42.424Z,18.20
2018-01-15T22:06:10.792Z,16.27
2018-01-15T22:08:39.180Z,17.50
2018-01-15T22:11:07.548Z,17.63
2018-01-15T22:13:36.777Z,16.10
2018-01-15T22:16:05.216Z,15.63
2018-01-15T22:18:33.590Z,17.23
2018-01-15T22:21:02.814Z,15.10
2018-01-15T22:23:31.201Z,13.23
2018-01-15T22:26:00.408Z,13.73
2018-01-15T22:28:30.994Z,13.73
2018-01-15T22:30:59.474Z,14.70
2018-01-15T22:33:27.850Z,13.40
2018-01-15T22:35:56.122Z,14.73
2018-01-15T22:38:24.513Z,15.20
2018-01-15T22:40:52.881Z,14.30
2018-01-15T22:43:21.257Z,11.70
2018-01-15T22:45:50.373Z,13.10
2018-01-15T22:48:18.753Z,11.17
2018-01-15T22:50:49.767Z,10.67
2018-01-15T22:53:18.157Z,11.73
2018-01-15T22:55:52.082Z,10.47
2018-01-15T22:58:21.430Z,8.77
2018-01-15T23:00:51.774Z,6.10
2018-01-15T23:03:23.216Z,5.97
2018-01-15T23:05:55.399Z,7.23
2018-01-15T23:08:23.780Z,6.57
2018-01-15T23:10:53.729Z,7.87
2018-01-15T23:13:25.665Z,6.47
2018-01-15T23:15:54.088Z,6.23
2018-01-15T23:18:22.460Z,5.17
2018-01-15T23:20:50.861Z,3.47
2018-01-15T23:23:21.585Z,3.80
2018-01-15T23:25:51.857Z,4.37
2018-01-15T23:28:20.227Z,3.40
2018-01-15T23:30:48.661Z,2.63
2018-01-15T23:33:17.895Z,3.00
2018-01-15T23:35:46.266Z,1.80
2018-01-15T23:38:14.649Z,1.77
2018-01-15T23:40:43.020Z,1.70
2018-01-15T23:43:11.408Z,1.40
2018-01-15T23:45:39.788Z,1.00
2018-01-15T23:48:08.162Z,1.50
2018-01-15T23:50:36.376Z,2.10
2018-01-15T23:53:04.765Z,1.30
2018-01-15T23:55:33.129Z,1.53
2018-01-15T23:58:01.494Z,1.20
